Ash Ridge, Ohio
Current Conditions -  °F | °C
As of 4:15 AM on Monday 24 Nov 2014 (Local Time) from KFGX Reporting Station
Broken Clouds Broken Clouds  
Wind Chill: 58°   Ceiling: 3200
Heat Index: 58°   Visibility: 10mi
Dew Point: 55°   Wind: 17mph
Humidity: 88%   Direction: 210°SSW
Pressure: 29.43"   Gusts: 23mph
Location:  38.8698°N, 83.9081°W
Report Text: KFGX 240915Z AUTO 21015G20KT 10SM SCT023 BKN032 BKN038 15/13 A2943 RMK AO2 T01470127
Loading
Personal Weather Stations






























Interactive Weather Map New forecast layout! Learn more

10-Day Weather Forecast

Advertisements
Track Severe Weather on mobile